sensor_id;sensor_type;location;lat;lon;timestamp;P1;durP1;ratioP1;P2;durP2;ratioP2
15261;SDS011;7733;51.554;13.590;2024-02-21T00:00:51;13.17;;;5.37;;
15261;SDS011;7733;51.554;13.590;2024-02-21T00:03:17;9.87;;;4.10;;
15261;SDS011;7733;51.554;13.590;2024-02-21T00:05:43;13.20;;;4.53;;
15261;SDS011;7733;51.554;13.590;2024-02-21T00:08:08;11.37;;;5.10;;
15261;SDS011;7733;51.554;13.590;2024-02-21T00:10:34;10.47;;;5.13;;
15261;SDS011;7733;51.554;13.590;2024-02-21T00:13:00;19.13;;;12.27;;
15261;SDS011;7733;51.554;13.590;2024-02-21T00:15:27;10.73;;;3.73;;
15261;SDS011;7733;51.554;13.590;2024-02-21T00:17:53;10.00;;;4.60;;
15261;SDS011;7733;51.554;13.590;2024-02-21T00:20:18;10.50;;;4.60;;
15261;SDS011;7733;51.554;13.590;2024-02-21T00:22:45;12.70;;;5.87;;
15261;SDS011;7733;51.554;13.590;2024-02-21T00:25:11;11.63;;;5.00;;
15261;SDS011;7733;51.554;13.590;2024-02-21T00:27:38;11.60;;;4.33;;
15261;SDS011;7733;51.554;13.590;2024-02-21T00:30:04;8.03;;;3.73;;
15261;SDS011;7733;51.554;13.590;2024-02-21T00:32:31;7.33;;;3.73;;
15261;SDS011;7733;51.554;13.590;2024-02-21T00:35:00;9.87;;;4.27;;
15261;SDS011;7733;51.554;13.590;2024-02-21T00:37:26;10.57;;;4.63;;
15261;SDS011;7733;51.554;13.590;2024-02-21T00:39:53;8.40;;;4.10;;
15261;SDS011;7733;51.554;13.590;2024-02-21T00:42:19;9.43;;;3.90;;
15261;SDS011;7733;51.554;13.590;2024-02-21T00:44:46;11.17;;;4.20;;
15261;SDS011;7733;51.554;13.590;2024-02-21T00:47:13;8.20;;;3.73;;
15261;SDS011;7733;51.554;13.590;2024-02-21T00:49:39;8.57;;;4.43;;
15261;SDS011;7733;51.554;13.590;2024-02-21T00:52:04;8.70;;;4.43;;
15261;SDS011;7733;51.554;13.590;2024-02-21T00:54:30;8.70;;;3.97;;
15261;SDS011;7733;51.554;13.590;2024-02-21T00:56:57;8.03;;;3.60;;
15261;SDS011;7733;51.554;13.590;2024-02-21T00:59:23;13.17;;;5.27;;
15261;SDS011;7733;51.554;13.590;2024-02-21T01:01:48;10.83;;;4.03;;
15261;SDS011;7733;51.554;13.590;2024-02-21T01:04:14;10.27;;;5.33;;
15261;SDS011;7733;51.554;13.590;2024-02-21T01:06:40;12.70;;;5.17;;
15261;SDS011;7733;51.554;13.590;2024-02-21T01:09:07;13.03;;;4.17;;
15261;SDS011;7733;51.554;13.590;2024-02-21T01:11:33;7.83;;;3.93;;
15261;SDS011;7733;51.554;13.590;2024-02-21T01:13:59;7.87;;;4.17;;
15261;SDS011;7733;51.554;13.590;2024-02-21T01:16:25;9.03;;;4.30;;
15261;SDS011;7733;51.554;13.590;2024-02-21T01:18:51;12.27;;;4.30;;
15261;SDS011;7733;51.554;13.590;2024-02-21T01:21:17;11.13;;;4.03;;
15261;SDS011;7733;51.554;13.590;2024-02-21T01:23:43;7.97;;;4.13;;
15261;SDS011;7733;51.554;13.590;2024-02-21T01:26:08;7.70;;;3.63;;
15261;SDS011;7733;51.554;13.590;2024-02-21T01:28:38;9.27;;;4.17;;
15261;SDS011;7733;51.554;13.590;2024-02-21T01:31:04;8.77;;;3.80;;
15261;SDS011;7733;51.554;13.590;2024-02-21T01:33:30;11.23;;;4.90;;
15261;SDS011;7733;51.554;13.590;2024-02-21T01:36:00;11.87;;;4.10;;
15261;SDS011;7733;51.554;13.590;2024-02-21T01:38:27;9.53;;;4.97;;
15261;SDS011;7733;51.554;13.590;2024-02-21T01:40:54;10.63;;;4.50;;
15261;SDS011;7733;51.554;13.590;2024-02-21T01:43:20;11.80;;;4.63;;
15261;SDS011;7733;51.554;13.590;2024-02-21T01:45:47;12.73;;;5.07;;
15261;SDS011;7733;51.554;13.590;2024-02-21T01:48:17;8.40;;;4.20;;
15261;SDS011;7733;51.554;13.590;2024-02-21T01:50:44;7.77;;;3.83;;
15261;SDS011;7733;51.554;13.590;2024-02-21T01:53:12;7.67;;;3.30;;
15261;SDS011;7733;51.554;13.590;2024-02-21T01:55:54;7.70;;;4.10;;
15261;SDS011;7733;51.554;13.590;2024-02-21T01:58:20;9.40;;;3.87;;
15261;SDS011;7733;51.554;13.590;2024-02-21T02:00:47;9.30;;;3.60;;
15261;SDS011;7733;51.554;13.590;2024-02-21T02:03:13;9.37;;;3.50;;
15261;SDS011;7733;51.554;13.590;2024-02-21T02:05:41;11.70;;;5.83;;
15261;SDS011;7733;51.554;13.590;2024-02-21T02:08:17;8.00;;;3.93;;
15261;SDS011;7733;51.554;13.590;2024-02-21T02:10:47;9.87;;;4.30;;
15261;SDS011;7733;51.554;13.590;2024-02-21T02:13:13;8.20;;;3.70;;
15261;SDS011;7733;51.554;13.590;2024-02-21T02:15:43;7.50;;;3.90;;
15261;SDS011;7733;51.554;13.590;2024-02-21T02:18:12;10.60;;;4.07;;
15261;SDS011;7733;51.554;13.590;2024-02-21T02:20:39;10.53;;;3.90;;
15261;SDS011;7733;51.554;13.590;2024-02-21T02:23:12;8.20;;;3.53;;
15261;SDS011;7733;51.554;13.590;2024-02-21T02:25:48;9.50;;;3.70;;
15261;SDS011;7733;51.554;13.590;2024-02-21T02:28:17;9.30;;;4.27;;
15261;SDS011;7733;51.554;13.590;2024-02-21T02:30:43;11.47;;;4.03;;
15261;SDS011;7733;51.554;13.590;2024-02-21T02:33:10;8.10;;;3.63;;
15261;SDS011;7733;51.554;13.590;2024-02-21T02:35:36;8.03;;;3.50;;
15261;SDS011;7733;51.554;13.590;2024-02-21T02:38:04;8.03;;;3.73;;
15261;SDS011;7733;51.554;13.590;2024-02-21T02:40:31;8.87;;;3.93;;
15261;SDS011;7733;51.554;13.590;2024-02-21T02:42:59;11.13;;;3.70;;
15261;SDS011;7733;51.554;13.590;2024-02-21T02:45:25;10.13;;;3.70;;
15261;SDS011;7733;51.554;13.590;2024-02-21T02:47:51;8.50;;;3.07;;
15261;SDS011;7733;51.554;13.590;2024-02-21T02:50:24;10.20;;;4.23;;
15261;SDS011;7733;51.554;13.590;2024-02-21T02:52:52;11.70;;;3.70;;
15261;SDS011;7733;51.554;13.590;2024-02-21T02:55:19;6.13;;;3.33;;
15261;SDS011;7733;51.554;13.590;2024-02-21T02:57:45;9.07;;;3.40;;
15261;SDS011;7733;51.554;13.590;2024-02-21T03:00:11;9.37;;;4.00;;
15261;SDS011;7733;51.554;13.590;2024-02-21T03:02:40;10.27;;;4.30;;
15261;SDS011;7733;51.554;13.590;2024-02-21T03:05:14;8.93;;;3.77;;
15261;SDS011;7733;51.554;13.590;2024-02-21T03:07:45;10.73;;;3.93;;
15261;SDS011;7733;51.554;13.590;2024-02-21T03:10:12;4.97;;;3.23;;
15261;SDS011;7733;51.554;13.590;2024-02-21T03:12:39;7.37;;;3.80;;
15261;SDS011;7733;51.554;13.590;2024-02-21T03:15:05;11.80;;;4.17;;
15261;SDS011;7733;51.554;13.590;2024-02-21T03:17:32;9.07;;;3.57;;
15261;SDS011;7733;51.554;13.590;2024-02-21T03:19:59;7.43;;;3.43;;
15261;SDS011;7733;51.554;13.590;2024-02-21T03:22:26;7.57;;;4.10;;
15261;SDS011;7733;51.554;13.590;2024-02-21T03:24:52;8.87;;;3.60;;
15261;SDS011;7733;51.554;13.590;2024-02-21T03:27:18;8.87;;;3.43;;
15261;SDS011;7733;51.554;13.590;2024-02-21T03:29:43;8.50;;;3.60;;
15261;SDS011;7733;51.554;13.590;2024-02-21T03:32:09;9.20;;;3.93;;
15261;SDS011;7733;51.554;13.590;2024-02-21T03:34:35;9.33;;;4.10;;
15261;SDS011;7733;51.554;13.590;2024-02-21T03:37:01;7.70;;;3.60;;
15261;SDS011;7733;51.554;13.590;2024-02-21T03:39:26;10.77;;;4.13;;
15261;SDS011;7733;51.554;13.590;2024-02-21T03:41:55;10.50;;;4.00;;
15261;SDS011;7733;51.554;13.590;2024-02-21T03:44:21;9.20;;;4.03;;
15261;SDS011;7733;51.554;13.590;2024-02-21T03:46:47;8.90;;;3.53;;
15261;SDS011;7733;51.554;13.590;2024-02-21T03:49:12;7.23;;;3.47;;
15261;SDS011;7733;51.554;13.590;2024-02-21T03:51:38;10.17;;;3.80;;
15261;SDS011;7733;51.554;13.590;2024-02-21T03:54:04;10.93;;;4.27;;
15261;SDS011;7733;51.554;13.590;2024-02-21T03:56:29;9.97;;;3.93;;
15261;SDS011;7733;51.554;13.590;2024-02-21T03:58:55;11.37;;;4.03;;
15261;SDS011;7733;51.554;13.590;2024-02-21T04:01:21;11.23;;;3.90;;
15261;SDS011;7733;51.554;13.590;2024-02-21T04:03:47;8.83;;;4.67;;
15261;SDS011;7733;51.554;13.590;2024-02-21T04:06:12;7.07;;;3.60;;
15261;SDS011;7733;51.554;13.590;2024-02-21T04:08:38;11.60;;;4.53;;
15261;SDS011;7733;51.554;13.590;2024-02-21T04:11:04;10.50;;;4.70;;
15261;SDS011;7733;51.554;13.590;2024-02-21T04:13:30;8.63;;;3.93;;
15261;SDS011;7733;51.554;13.590;2024-02-21T04:15:55;10.20;;;4.47;;
15261;SDS011;7733;51.554;13.590;2024-02-21T04:18:21;11.40;;;4.30;;
15261;SDS011;7733;51.554;13.590;2024-02-21T04:20:47;7.77;;;4.17;;
15261;SDS011;7733;51.554;13.590;2024-02-21T04:23:13;9.60;;;4.13;;
15261;SDS011;7733;51.554;13.590;2024-02-21T04:25:39;10.90;;;5.97;;
15261;SDS011;7733;51.554;13.590;2024-02-21T04:28:05;9.33;;;4.87;;
15261;SDS011;7733;51.554;13.590;2024-02-21T04:30:30;7.97;;;4.13;;
15261;SDS011;7733;51.554;13.590;2024-02-21T04:32:56;12.73;;;3.97;;
15261;SDS011;7733;51.554;13.590;2024-02-21T04:35:22;12.23;;;5.20;;
15261;SDS011;7733;51.554;13.590;2024-02-21T04:37:48;9.80;;;4.23;;
15261;SDS011;7733;51.554;13.590;2024-02-21T04:40:15;10.23;;;4.17;;
15261;SDS011;7733;51.554;13.590;2024-02-21T04:42:41;7.17;;;4.17;;
15261;SDS011;7733;51.554;13.590;2024-02-21T04:45:08;11.33;;;3.90;;
15261;SDS011;7733;51.554;13.590;2024-02-21T04:47:34;8.07;;;3.90;;
15261;SDS011;7733;51.554;13.590;2024-02-21T04:50:00;10.00;;;3.40;;
15261;SDS011;7733;51.554;13.590;2024-02-21T04:52:26;8.93;;;3.80;;
15261;SDS011;7733;51.554;13.590;2024-02-21T04:54:51;11.63;;;3.97;;
15261;SDS011;7733;51.554;13.590;2024-02-21T04:57:17;9.70;;;3.83;;
15261;SDS011;7733;51.554;13.590;2024-02-21T04:59:46;11.50;;;4.07;;
15261;SDS011;7733;51.554;13.590;2024-02-21T05:02:14;9.33;;;4.03;;
15261;SDS011;7733;51.554;13.590;2024-02-21T05:04:40;10.43;;;3.90;;
15261;SDS011;7733;51.554;13.590;2024-02-21T05:07:07;6.47;;;3.53;;
15261;SDS011;7733;51.554;13.590;2024-02-21T05:09:33;12.40;;;4.50;;
15261;SDS011;7733;51.554;13.590;2024-02-21T05:11:59;9.60;;;4.33;;
15261;SDS011;7733;51.554;13.590;2024-02-21T05:14:25;7.70;;;3.43;;
15261;SDS011;7733;51.554;13.590;2024-02-21T05:16:54;8.87;;;4.03;;
15261;SDS011;7733;51.554;13.590;2024-02-21T05:19:20;9.13;;;3.97;;
15261;SDS011;7733;51.554;13.590;2024-02-21T05:21:46;9.20;;;4.17;;
15261;SDS011;7733;51.554;13.590;2024-02-21T05:24:11;6.70;;;3.43;;
15261;SDS011;7733;51.554;13.590;2024-02-21T05:26:37;9.50;;;3.90;;
15261;SDS011;7733;51.554;13.590;2024-02-21T05:29:03;8.37;;;4.03;;
15261;SDS011;7733;51.554;13.590;2024-02-21T05:31:42;9.33;;;4.10;;
15261;SDS011;7733;51.554;13.590;2024-02-21T05:34:22;8.67;;;3.77;;
15261;SDS011;7733;51.554;13.590;2024-02-21T05:36:48;6.80;;;3.70;;
15261;SDS011;7733;51.554;13.590;2024-02-21T05:39:14;6.97;;;4.17;;
15261;SDS011;7733;51.554;13.590;2024-02-21T05:41:41;9.03;;;3.90;;
15261;SDS011;7733;51.554;13.590;2024-02-21T05:44:07;8.93;;;3.77;;
15261;SDS011;7733;51.554;13.590;2024-02-21T05:46:33;10.00;;;4.17;;
15261;SDS011;7733;51.554;13.590;2024-02-21T05:49:00;9.40;;;3.80;;
15261;SDS011;7733;51.554;13.590;2024-02-21T05:51:26;8.40;;;3.70;;
15261;SDS011;7733;51.554;13.590;2024-02-21T05:53:52;7.43;;;4.03;;
15261;SDS011;7733;51.554;13.590;2024-02-21T05:56:17;9.27;;;4.33;;
15261;SDS011;7733;51.554;13.590;2024-02-21T05:58:44;8.47;;;3.60;;
15261;SDS011;7733;51.554;13.590;2024-02-21T06:01:10;8.83;;;3.90;;
15261;SDS011;7733;51.554;13.590;2024-02-21T06:03:36;7.97;;;3.63;;
15261;SDS011;7733;51.554;13.590;2024-02-21T06:06:02;7.47;;;3.23;;
15261;SDS011;7733;51.554;13.590;2024-02-21T06:08:29;10.37;;;3.90;;
15261;SDS011;7733;51.554;13.590;2024-02-21T06:10:56;10.67;;;4.10;;
15261;SDS011;7733;51.554;13.590;2024-02-21T06:13:23;6.90;;;3.87;;
15261;SDS011;7733;51.554;13.590;2024-02-21T06:15:49;10.33;;;3.70;;
15261;SDS011;7733;51.554;13.590;2024-02-21T06:18:17;7.97;;;3.73;;
15261;SDS011;7733;51.554;13.590;2024-02-21T06:20:44;10.60;;;3.77;;
15261;SDS011;7733;51.554;13.590;2024-02-21T06:23:11;8.27;;;3.57;;
15261;SDS011;7733;51.554;13.590;2024-02-21T06:25:38;9.63;;;3.73;;
15261;SDS011;7733;51.554;13.590;2024-02-21T06:28:05;8.20;;;3.83;;
15261;SDS011;7733;51.554;13.590;2024-02-21T06:30:30;6.80;;;3.30;;
15261;SDS011;7733;51.554;13.590;2024-02-21T06:32:56;7.00;;;3.43;;
15261;SDS011;7733;51.554;13.590;2024-02-21T06:35:22;10.07;;;4.17;;
15261;SDS011;7733;51.554;13.590;2024-02-21T06:37:51;8.97;;;4.27;;
15261;SDS011;7733;51.554;13.590;2024-02-21T06:40:17;8.40;;;3.57;;
15261;SDS011;7733;51.554;13.590;2024-02-21T06:42:46;8.47;;;3.80;;
15261;SDS011;7733;51.554;13.590;2024-02-21T06:45:12;8.80;;;3.60;;
15261;SDS011;7733;51.554;13.590;2024-02-21T06:47:38;9.77;;;4.20;;
15261;SDS011;7733;51.554;13.590;2024-02-21T06:50:04;6.53;;;3.63;;
15261;SDS011;7733;51.554;13.590;2024-02-21T06:52:30;8.80;;;3.97;;
15261;SDS011;7733;51.554;13.590;2024-02-21T06:54:56;6.23;;;3.73;;
15261;SDS011;7733;51.554;13.590;2024-02-21T06:57:22;7.03;;;3.80;;
15261;SDS011;7733;51.554;13.590;2024-02-21T06:59:48;8.70;;;3.63;;
15261;SDS011;7733;51.554;13.590;2024-02-21T07:02:14;9.93;;;3.83;;
15261;SDS011;7733;51.554;13.590;2024-02-21T07:04:39;7.50;;;4.17;;
15261;SDS011;7733;51.554;13.590;2024-02-21T07:07:05;9.63;;;4.17;;
15261;SDS011;7733;51.554;13.590;2024-02-21T07:09:33;6.97;;;3.97;;
15261;SDS011;7733;51.554;13.590;2024-02-21T07:11:59;8.53;;;4.23;;
15261;SDS011;7733;51.554;13.590;2024-02-21T07:14:25;9.73;;;4.17;;
15261;SDS011;7733;51.554;13.590;2024-02-21T07:16:51;7.97;;;3.87;;
15261;SDS011;7733;51.554;13.590;2024-02-21T07:19:17;9.50;;;4.20;;
15261;SDS011;7733;51.554;13.590;2024-02-21T07:21:42;9.17;;;4.13;;
15261;SDS011;7733;51.554;13.590;2024-02-21T07:24:08;8.87;;;4.20;;
15261;SDS011;7733;51.554;13.590;2024-02-21T07:26:34;6.60;;;4.07;;
15261;SDS011;7733;51.554;13.590;2024-02-21T07:29:01;8.27;;;4.10;;
15261;SDS011;7733;51.554;13.590;2024-02-21T07:31:27;6.47;;;3.60;;
15261;SDS011;7733;51.554;13.590;2024-02-21T07:33:53;10.73;;;4.50;;
15261;SDS011;7733;51.554;13.590;2024-02-21T07:36:29;9.40;;;4.00;;
15261;SDS011;7733;51.554;13.590;2024-02-21T07:38:57;8.67;;;3.97;;
15261;SDS011;7733;51.554;13.590;2024-02-21T07:41:24;9.07;;;4.37;;
15261;SDS011;7733;51.554;13.590;2024-02-21T07:43:51;9.00;;;4.23;;
15261;SDS011;7733;51.554;13.590;2024-02-21T07:46:18;8.50;;;4.17;;
15261;SDS011;7733;51.554;13.590;2024-02-21T07:48:45;8.10;;;4.17;;
15261;SDS011;7733;51.554;13.590;2024-02-21T07:51:11;5.27;;;3.67;;
15261;SDS011;7733;51.554;13.590;2024-02-21T07:53:38;8.50;;;4.00;;
15261;SDS011;7733;51.554;13.590;2024-02-21T07:56:09;8.97;;;4.20;;
15261;SDS011;7733;51.554;13.590;2024-02-21T07:58:39;6.30;;;3.93;;
15261;SDS011;7733;51.554;13.590;2024-02-21T08:01:06;8.33;;;4.00;;
15261;SDS011;7733;51.554;13.590;2024-02-21T08:03:32;8.20;;;3.63;;
15261;SDS011;7733;51.554;13.590;2024-02-21T08:05:58;6.23;;;3.90;;
15261;SDS011;7733;51.554;13.590;2024-02-21T08:08:23;5.33;;;3.43;;
15261;SDS011;7733;51.554;13.590;2024-02-21T08:10:50;7.87;;;3.97;;
15261;SDS011;7733;51.554;13.590;2024-02-21T08:13:15;8.40;;;3.83;;
15261;SDS011;7733;51.554;13.590;2024-02-21T08:15:41;6.47;;;4.00;;
15261;SDS011;7733;51.554;13.590;2024-02-21T08:18:07;8.33;;;3.90;;
15261;SDS011;7733;51.554;13.590;2024-02-21T08:20:34;7.80;;;3.93;;
15261;SDS011;7733;51.554;13.590;2024-02-21T08:23:00;8.87;;;4.50;;
15261;SDS011;7733;51.554;13.590;2024-02-21T08:25:27;10.40;;;4.70;;
15261;SDS011;7733;51.554;13.590;2024-02-21T08:27:55;8.10;;;4.27;;
15261;SDS011;7733;51.554;13.590;2024-02-21T08:30:24;6.67;;;4.57;;
15261;SDS011;7733;51.554;13.590;2024-02-21T08:32:50;9.53;;;4.37;;
15261;SDS011;7733;51.554;13.590;2024-02-21T08:35:16;8.43;;;4.27;;
15261;SDS011;7733;51.554;13.590;2024-02-21T08:37:45;8.10;;;4.80;;
15261;SDS011;7733;51.554;13.590;2024-02-21T08:40:13;5.90;;;4.23;;
15261;SDS011;7733;51.554;13.590;2024-02-21T08:42:42;8.87;;;4.57;;
15261;SDS011;7733;51.554;13.590;2024-02-21T08:45:09;5.30;;;4.17;;
15261;SDS011;7733;51.554;13.590;2024-02-21T08:47:35;6.37;;;4.10;;
15261;SDS011;7733;51.554;13.590;2024-02-21T08:50:01;9.10;;;4.77;;
15261;SDS011;7733;51.554;13.590;2024-02-21T08:52:28;8.27;;;4.43;;
15261;SDS011;7733;51.554;13.590;2024-02-21T08:54:53;6.27;;;4.37;;
15261;SDS011;7733;51.554;13.590;2024-02-21T08:57:19;8.13;;;4.50;;
15261;SDS011;7733;51.554;13.590;2024-02-21T08:59:45;6.37;;;3.97;;
15261;SDS011;7733;51.554;13.590;2024-02-21T09:02:12;7.67;;;4.07;;
15261;SDS011;7733;51.554;13.590;2024-02-21T09:04:38;5.60;;;3.97;;
15261;SDS011;7733;51.554;13.590;2024-02-21T09:07:04;7.67;;;3.97;;
15261;SDS011;7733;51.554;13.590;2024-02-21T09:09:30;6.73;;;4.27;;
15261;SDS011;7733;51.554;13.590;2024-02-21T09:11:58;7.23;;;4.10;;
15261;SDS011;7733;51.554;13.590;2024-02-21T09:14:30;7.77;;;4.30;;
15261;SDS011;7733;51.554;13.590;2024-02-21T09:17:03;6.17;;;4.30;;
15261;SDS011;7733;51.554;13.590;2024-02-21T09:19:29;7.67;;;4.60;;
15261;SDS011;7733;51.554;13.590;2024-02-21T09:21:54;8.47;;;4.50;;
15261;SDS011;7733;51.554;13.590;2024-02-21T09:24:20;8.40;;;4.30;;
15261;SDS011;7733;51.554;13.590;2024-02-21T09:26:46;7.70;;;4.27;;
15261;SDS011;7733;51.554;13.590;2024-02-21T09:29:12;7.30;;;4.90;;
15261;SDS011;7733;51.554;13.590;2024-02-21T09:31:38;7.33;;;4.57;;
15261;SDS011;7733;51.554;13.590;2024-02-21T09:34:04;7.50;;;4.47;;
15261;SDS011;7733;51.554;13.590;2024-02-21T09:36:30;7.90;;;4.57;;
15261;SDS011;7733;51.554;13.590;2024-02-21T09:38:56;7.63;;;5.10;;
15261;SDS011;7733;51.554;13.590;2024-02-21T09:41:25;9.23;;;4.57;;
15261;SDS011;7733;51.554;13.590;2024-02-21T09:43:53;9.57;;;4.87;;
15261;SDS011;7733;51.554;13.590;2024-02-21T09:46:19;9.17;;;4.80;;
15261;SDS011;7733;51.554;13.590;2024-02-21T09:52:00;9.43;;;5.10;;
15261;SDS011;7733;51.554;13.590;2024-02-21T09:54:30;6.53;;;4.30;;
15261;SDS011;7733;51.554;13.590;2024-02-21T09:56:57;8.20;;;4.27;;
15261;SDS011;7733;51.554;13.590;2024-02-21T09:59:24;7.00;;;4.53;;
15261;SDS011;7733;51.554;13.590;2024-02-21T10:01:57;5.10;;;4.03;;
15261;SDS011;7733;51.554;13.590;2024-02-21T10:04:25;9.60;;;5.20;;
15261;SDS011;7733;51.554;13.590;2024-02-21T10:06:51;7.53;;;4.53;;
15261;SDS011;7733;51.554;13.590;2024-02-21T10:09:25;6.57;;;4.20;;
15261;SDS011;7733;51.554;13.590;2024-02-21T10:11:55;7.23;;;4.50;;
15261;SDS011;7733;51.554;13.590;2024-02-21T10:14:33;8.07;;;4.33;;
15261;SDS011;7733;51.554;13.590;2024-02-21T10:16:59;7.90;;;4.50;;
15261;SDS011;7733;51.554;13.590;2024-02-21T10:19:25;9.90;;;4.73;;
15261;SDS011;7733;51.554;13.590;2024-02-21T10:22:01;6.83;;;4.20;;
15261;SDS011;7733;51.554;13.590;2024-02-21T10:24:28;8.63;;;4.87;;
15261;SDS011;7733;51.554;13.590;2024-02-21T10:27:01;9.33;;;5.00;;
15261;SDS011;7733;51.554;13.590;2024-02-21T10:29:29;8.73;;;4.57;;
15261;SDS011;7733;51.554;13.590;2024-02-21T10:34:38;6.73;;;4.33;;
15261;SDS011;7733;51.554;13.590;2024-02-21T10:37:06;7.07;;;4.37;;
15261;SDS011;7733;51.554;13.590;2024-02-21T10:39:34;7.03;;;4.30;;
15261;SDS011;7733;51.554;13.590;2024-02-21T10:42:05;6.03;;;4.27;;
15261;SDS011;7733;51.554;13.590;2024-02-21T10:44:33;10.33;;;4.77;;
15261;SDS011;7733;51.554;13.590;2024-02-21T10:47:07;5.00;;;4.07;;
15261;SDS011;7733;51.554;13.590;2024-02-21T10:49:38;6.00;;;4.57;;
15261;SDS011;7733;51.554;13.590;2024-02-21T10:52:55;6.73;;;4.30;;
15261;SDS011;7733;51.554;13.590;2024-02-21T10:55:21;5.07;;;4.00;;
15261;SDS011;7733;51.554;13.590;2024-02-21T10:58:06;7.77;;;4.47;;
15261;SDS011;7733;51.554;13.590;2024-02-21T11:00:35;7.87;;;4.17;;
15261;SDS011;7733;51.554;13.590;2024-02-21T11:03:02;6.93;;;4.20;;
15261;SDS011;7733;51.554;13.590;2024-02-21T11:05:29;5.37;;;4.10;;
15261;SDS011;7733;51.554;13.590;2024-02-21T11:07:57;8.70;;;3.97;;
15261;SDS011;7733;51.554;13.590;2024-02-21T11:10:23;6.20;;;3.63;;
15261;SDS011;7733;51.554;13.590;2024-02-21T11:13:04;7.87;;;4.50;;
15261;SDS011;7733;51.554;13.590;2024-02-21T11:15:36;6.63;;;4.10;;
15261;SDS011;7733;51.554;13.590;2024-02-21T11:18:02;6.23;;;3.70;;
15261;SDS011;7733;51.554;13.590;2024-02-21T11:20:35;9.03;;;4.40;;
15261;SDS011;7733;51.554;13.590;2024-02-21T11:23:02;5.83;;;4.40;;
15261;SDS011;7733;51.554;13.590;2024-02-21T11:25:28;6.77;;;4.10;;
15261;SDS011;7733;51.554;13.590;2024-02-21T11:28:02;7.90;;;3.90;;
15261;SDS011;7733;51.554;13.590;2024-02-21T11:30:32;7.67;;;3.93;;
15261;SDS011;7733;51.554;13.590;2024-02-21T11:33:03;7.60;;;4.57;;
15261;SDS011;7733;51.554;13.590;2024-02-21T11:35:34;5.40;;;3.67;;
15261;SDS011;7733;51.554;13.590;2024-02-21T11:38:13;5.73;;;4.07;;
15261;SDS011;7733;51.554;13.590;2024-02-21T11:40:46;5.10;;;3.93;;
15261;SDS011;7733;51.554;13.590;2024-02-21T11:43:12;9.43;;;4.10;;
15261;SDS011;7733;51.554;13.590;2024-02-21T11:45:38;6.53;;;4.10;;
15261;SDS011;7733;51.554;13.590;2024-02-21T11:48:05;6.87;;;4.03;;
15261;SDS011;7733;51.554;13.590;2024-02-21T11:50:32;6.37;;;4.03;;
15261;SDS011;7733;51.554;13.590;2024-02-21T11:53:04;9.63;;;4.20;;
15261;SDS011;7733;51.554;13.590;2024-02-21T11:55:30;4.50;;;3.80;;
15261;SDS011;7733;51.554;13.590;2024-02-21T11:57:56;5.10;;;3.70;;
15261;SDS011;7733;51.554;13.590;2024-02-21T12:00:22;5.10;;;4.27;;
15261;SDS011;7733;51.554;13.590;2024-02-21T12:02:51;6.17;;;4.70;;
15261;SDS011;7733;51.554;13.590;2024-02-21T12:05:20;7.17;;;4.27;;
15261;SDS011;7733;51.554;13.590;2024-02-21T12:07:46;5.67;;;4.30;;
15261;SDS011;7733;51.554;13.590;2024-02-21T12:10:13;7.33;;;4.13;;
15261;SDS011;7733;51.554;13.590;2024-02-21T12:12:39;7.07;;;4.30;;
15261;SDS011;7733;51.554;13.590;2024-02-21T12:15:05;8.83;;;4.67;;
15261;SDS011;7733;51.554;13.590;2024-02-21T12:17:36;7.47;;;4.53;;
15261;SDS011;7733;51.554;13.590;2024-02-21T12:20:02;6.57;;;3.80;;
15261;SDS011;7733;51.554;13.590;2024-02-21T12:22:30;6.43;;;4.30;;
15261;SDS011;7733;51.554;13.590;2024-02-21T12:24:57;5.30;;;3.63;;
15261;SDS011;7733;51.554;13.590;2024-02-21T12:27:24;6.67;;;3.80;;
15261;SDS011;7733;51.554;13.590;2024-02-21T12:29:51;7.97;;;3.67;;
15261;SDS011;7733;51.554;13.590;2024-02-21T12:32:17;5.33;;;3.27;;
15261;SDS011;7733;51.554;13.590;2024-02-21T12:34:42;7.10;;;3.80;;
15261;SDS011;7733;51.554;13.590;2024-02-21T12:37:08;5.53;;;4.03;;
15261;SDS011;7733;51.554;13.590;2024-02-21T12:39:37;6.97;;;3.73;;
15261;SDS011;7733;51.554;13.590;2024-02-21T12:42:03;7.87;;;4.20;;
15261;SDS011;7733;51.554;13.590;2024-02-21T12:44:29;6.97;;;4.03;;
15261;SDS011;7733;51.554;13.590;2024-02-21T12:46:55;5.87;;;3.60;;
15261;SDS011;7733;51.554;13.590;2024-02-21T12:49:20;7.03;;;3.87;;
15261;SDS011;7733;51.554;13.590;2024-02-21T12:51:46;6.83;;;3.87;;
15261;SDS011;7733;51.554;13.590;2024-02-21T12:54:12;5.97;;;3.80;;
15261;SDS011;7733;51.554;13.590;2024-02-21T12:56:38;4.27;;;3.70;;
15261;SDS011;7733;51.554;13.590;2024-02-21T12:59:05;6.73;;;3.87;;
15261;SDS011;7733;51.554;13.590;2024-02-21T13:01:34;7.57;;;4.10;;
15261;SDS011;7733;51.554;13.590;2024-02-21T13:04:01;4.53;;;3.97;;
15261;SDS011;7733;51.554;13.590;2024-02-21T13:06:28;6.80;;;3.77;;
15261;SDS011;7733;51.554;13.590;2024-02-21T13:08:53;6.27;;;3.50;;
15261;SDS011;7733;51.554;13.590;2024-02-21T13:11:19;7.40;;;3.70;;
15261;SDS011;7733;51.554;13.590;2024-02-21T13:13:45;6.53;;;3.20;;
15261;SDS011;7733;51.554;13.590;2024-02-21T13:16:11;5.33;;;3.70;;
15261;SDS011;7733;51.554;13.590;2024-02-21T13:18:37;4.70;;;3.40;;
15261;SDS011;7733;51.554;13.590;2024-02-21T13:21:06;3.77;;;3.47;;
15261;SDS011;7733;51.554;13.590;2024-02-21T13:23:34;4.50;;;3.30;;
15261;SDS011;7733;51.554;13.590;2024-02-21T13:25:59;4.60;;;3.23;;
15261;SDS011;7733;51.554;13.590;2024-02-21T13:28:25;4.63;;;3.57;;
15261;SDS011;7733;51.554;13.590;2024-02-21T13:30:51;4.83;;;3.10;;
15261;SDS011;7733;51.554;13.590;2024-02-21T13:33:17;4.20;;;3.23;;
15261;SDS011;7733;51.554;13.590;2024-02-21T13:35:42;5.30;;;3.40;;
15261;SDS011;7733;51.554;13.590;2024-02-21T13:38:08;5.43;;;3.37;;
15261;SDS011;7733;51.554;13.590;2024-02-21T13:40:35;5.03;;;2.87;;
15261;SDS011;7733;51.554;13.590;2024-02-21T13:43:01;3.30;;;3.00;;
15261;SDS011;7733;51.554;13.590;2024-02-21T13:45:27;5.37;;;3.33;;
15261;SDS011;7733;51.554;13.590;2024-02-21T13:47:52;3.83;;;3.03;;
15261;SDS011;7733;51.554;13.590;2024-02-21T13:50:19;3.83;;;3.07;;
15261;SDS011;7733;51.554;13.590;2024-02-21T13:52:48;4.33;;;3.00;;
15261;SDS011;7733;51.554;13.590;2024-02-21T13:55:14;3.23;;;2.90;;
15261;SDS011;7733;51.554;13.590;2024-02-21T13:57:40;8.47;;;3.10;;
15261;SDS011;7733;51.554;13.590;2024-02-21T14:00:06;3.77;;;2.97;;
15261;SDS011;7733;51.554;13.590;2024-02-21T14:02:36;4.77;;;2.80;;
15261;SDS011;7733;51.554;13.590;2024-02-21T14:05:02;4.00;;;3.07;;
15261;SDS011;7733;51.554;13.590;2024-02-21T14:07:30;3.70;;;2.77;;
15261;SDS011;7733;51.554;13.590;2024-02-21T14:09:58;4.63;;;2.83;;
15261;SDS011;7733;51.554;13.590;2024-02-21T14:12:24;4.60;;;2.50;;
15261;SDS011;7733;51.554;13.590;2024-02-21T14:14:50;2.90;;;2.40;;
15261;SDS011;7733;51.554;13.590;2024-02-21T14:17:16;4.63;;;2.80;;
15261;SDS011;7733;51.554;13.590;2024-02-21T14:19:43;2.90;;;2.60;;
15261;SDS011;7733;51.554;13.590;2024-02-21T14:22:09;2.97;;;2.67;;
15261;SDS011;7733;51.554;13.590;2024-02-21T14:24:36;4.10;;;2.67;;
15261;SDS011;7733;51.554;13.590;2024-02-21T14:27:02;3.53;;;2.60;;
15261;SDS011;7733;51.554;13.590;2024-02-21T14:29:28;2.67;;;2.20;;
15261;SDS011;7733;51.554;13.590;2024-02-21T14:31:54;3.77;;;2.40;;
15261;SDS011;7733;51.554;13.590;2024-02-21T14:34:20;3.60;;;2.50;;
15261;SDS011;7733;51.554;13.590;2024-02-21T14:36:46;5.27;;;2.70;;
15261;SDS011;7733;51.554;13.590;2024-02-21T14:39:11;3.07;;;2.53;;
15261;SDS011;7733;51.554;13.590;2024-02-21T14:41:37;3.57;;;2.90;;
15261;SDS011;7733;51.554;13.590;2024-02-21T14:44:04;2.93;;;2.53;;
15261;SDS011;7733;51.554;13.590;2024-02-21T14:46:31;2.73;;;2.50;;
15261;SDS011;7733;51.554;13.590;2024-02-21T14:48:57;2.57;;;2.07;;
15261;SDS011;7733;51.554;13.590;2024-02-21T14:51:22;3.27;;;2.23;;